createdAt,value
2022-09-09T00:01:39.960Z,68.94
2022-09-09T00:06:47.662Z,68.36
2022-09-09T00:11:54.996Z,68.12
2022-09-09T00:17:05.010Z,68.29
2022-09-09T00:22:17.788Z,68.29
2022-09-09T00:27:24.618Z,68.36
2022-09-09T00:32:32.310Z,68.35
2022-09-09T00:37:36.399Z,68.18
2022-09-09T00:42:43.918Z,68.23
2022-09-09T00:47:51.779Z,68.87
2022-09-09T00:53:07.361Z,69.19
2022-09-09T00:58:11.089Z,68.91
2022-09-09T01:03:25.016Z,68.61
2022-09-09T01:08:50.047Z,69.08
2022-09-09T01:13:59.971Z,69.38
2022-09-09T01:19:10.795Z,68.87
2022-09-09T01:24:24.173Z,69.86
2022-09-09T01:29:40.307Z,70.34
2022-09-09T01:34:43.909Z,70.06
2022-09-09T01:39:47.085Z,69.69
2022-09-09T01:44:55.272Z,68.68
2022-09-09T01:49:58.348Z,68.90
2022-09-09T01:55:04.025Z,69.85
2022-09-09T02:00:17.140Z,69.78
2022-09-09T02:05:30.653Z,69.74
2022-09-09T02:10:42.342Z,69.79
2022-09-09T02:16:01.730Z,70.35
2022-09-09T02:21:05.377Z,71.10
2022-09-09T02:26:09.870Z,70.55
2022-09-09T02:31:16.127Z,70.24
2022-09-09T02:36:20.966Z,69.71
2022-09-09T02:41:28.959Z,69.88
2022-09-09T02:46:46.683Z,69.41
2022-09-09T02:51:57.024Z,69.03
2022-09-09T02:57:06.625Z,68.84
2022-09-09T03:02:15.435Z,68.92
2022-09-09T03:07:21.976Z,68.94
2022-09-09T03:12:27.061Z,68.82
2022-09-09T03:17:31.338Z,69.04
2022-09-09T03:22:35.193Z,69.64
2022-09-09T03:27:38.180Z,69.88
2022-09-09T03:32:47.122Z,70.30
2022-09-09T03:37:51.906Z,70.51
2022-09-09T03:42:55.474Z,70.70
2022-09-09T03:47:59.717Z,70.54
2022-09-09T03:53:02.545Z,70.38
2022-09-09T03:58:05.469Z,70.86
2022-09-09T04:03:13.273Z,71.10
2022-09-09T04:08:16.142Z,71.06
2022-09-09T04:13:20.696Z,70.89
2022-09-09T04:18:26.924Z,70.19
2022-09-09T04:23:30.820Z,70.85
2022-09-09T04:28:37.281Z,71.37
2022-09-09T04:33:44.728Z,71.79
2022-09-09T04:38:48.385Z,71.27
2022-09-09T04:43:51.516Z,71.50
2022-09-09T04:48:55.772Z,74.43
2022-09-09T04:54:03.367Z,79.12
2022-09-09T04:59:07.440Z,80.21
2022-09-09T05:04:20.577Z,81.06
2022-09-09T05:09:23.854Z,81.12
2022-09-09T05:14:28.185Z,80.76
2022-09-09T05:19:32.760Z,81.14
2022-09-09T05:24:35.689Z,81.42
2022-09-09T05:29:39.974Z,81.41
2022-09-09T05:34:46.252Z,81.66
2022-09-09T05:39:49.192Z,82.42
2022-09-09T05:44:55.440Z,83.05
2022-09-09T05:49:59.859Z,84.25
2022-09-09T05:55:04.888Z,85.32
2022-09-09T06:00:09.258Z,85.84
2022-09-09T06:05:18.019Z,84.64
2022-09-09T06:10:22.478Z,84.82
2022-09-09T06:15:25.664Z,83.46
2022-09-09T06:20:31.577Z,82.11
2022-09-09T06:25:35.397Z,79.96
2022-09-09T06:30:39.443Z,79.29
2022-09-09T06:35:44.342Z,77.52
2022-09-09T06:40:53.902Z,77.63
2022-09-09T06:45:58.325Z,76.64
2022-09-09T06:51:08.531Z,76.00
2022-09-09T06:56:24.254Z,74.17
2022-09-09T07:01:31.471Z,69.08
2022-09-09T07:06:41.293Z,69.89
2022-09-09T07:11:49.499Z,71.08
2022-09-09T07:16:57.522Z,70.92
2022-09-09T07:22:04.622Z,71.33
2022-09-09T07:27:08.066Z,70.73
2022-09-09T07:32:12.501Z,70.61
2022-09-09T07:37:18.039Z,70.75
2022-09-09T07:42:22.002Z,69.89
2022-09-09T07:47:26.023Z,69.77
2022-09-09T07:52:30.374Z,69.73
2022-09-09T07:57:37.189Z,69.47
2022-09-09T08:02:41.082Z,69.26
2022-09-09T08:07:47.109Z,68.50
2022-09-09T08:13:07.764Z,68.24
2022-09-09T08:18:13.616Z,66.64
2022-09-09T08:23:17.876Z,66.24
2022-09-09T08:28:22.009Z,65.17
2022-09-09T08:33:26.060Z,62.42
2022-09-09T08:38:30.601Z,62.35
2022-09-09T08:43:35.498Z,62.49
2022-09-09T08:48:54.190Z,61.63
2022-09-09T08:54:01.846Z,59.79
2022-09-09T08:59:06.221Z,60.35
2022-09-09T09:04:40.300Z,61.86
2022-09-09T09:09:59.695Z,61.92
2022-09-09T09:15:03.528Z,61.56
2022-09-09T09:20:13.841Z,60.18
2022-09-09T09:25:21.393Z,59.10
2022-09-09T09:30:30.617Z,58.47
2022-09-09T09:35:42.964Z,59.39
2022-09-09T09:40:58.886Z,57.82
2022-09-09T09:46:17.539Z,56.63
2022-09-09T09:51:24.440Z,57.53
2022-09-09T09:56:31.036Z,56.99
2022-09-09T10:01:37.339Z,59.20
2022-09-09T10:06:45.652Z,60.39
2022-09-09T10:12:00.432Z,60.47
2022-09-09T10:17:17.850Z,59.88
2022-09-09T10:22:28.507Z,56.87
2022-09-09T10:27:41.357Z,53.71
2022-09-09T10:32:52.206Z,52.67
2022-09-09T10:38:14.852Z,50.87
2022-09-09T10:43:31.842Z,49.36
2022-09-09T10:48:49.255Z,50.00
2022-09-09T10:54:07.462Z,50.18
2022-09-09T10:59:16.153Z,48.83
2022-09-09T11:04:24.462Z,45.61
2022-09-09T11:09:33.124Z,45.04
2022-09-09T11:14:41.479Z,44.83
2022-09-09T11:19:46.022Z,43.14
2022-09-09T11:24:53.712Z,44.21
2022-09-09T11:30:27.236Z,43.82
2022-09-09T11:35:49.221Z,44.10
2022-09-09T11:41:00.214Z,44.20
2022-09-09T11:46:05.368Z,43.96
2022-09-09T11:51:16.488Z,42.15
2022-09-09T11:56:32.335Z,41.71
2022-09-09T12:01:42.586Z,43.24
2022-09-09T12:06:47.837Z,47.82
2022-09-09T12:11:51.589Z,49.37
2022-09-09T12:16:55.849Z,49.09
2022-09-09T12:22:09.487Z,47.75
2022-09-09T12:27:20.754Z,44.77
2022-09-09T12:32:27.678Z,42.75
2022-09-09T12:37:37.041Z,40.55
2022-09-09T12:42:42.795Z,42.04
2022-09-09T12:47:50.400Z,39.48
2022-09-09T12:52:56.027Z,38.33
2022-09-09T12:58:01.221Z,38.84
2022-09-09T13:03:19.172Z,40.97
2022-09-09T13:08:22.747Z,41.46
2022-09-09T13:13:31.008Z,41.06
2022-09-09T13:18:39.041Z,42.92
2022-09-09T13:23:42.137Z,42.44
2022-09-09T13:28:47.330Z,41.81
2022-09-09T13:33:54.061Z,42.41
2022-09-09T13:39:00.473Z,43.01
2022-09-09T13:44:04.797Z,44.19
2022-09-09T13:49:24.129Z,43.40
2022-09-09T13:54:26.914Z,42.21
2022-09-09T13:59:53.906Z,40.49
2022-09-09T14:04:56.278Z,39.43
2022-09-09T14:10:01.382Z,37.74
2022-09-09T14:15:05.067Z,40.40
2022-09-09T14:20:11.147Z,40.41
2022-09-09T14:25:15.317Z,39.11
2022-09-09T14:30:18.372Z,38.78
2022-09-09T14:35:23.207Z,38.67
2022-09-09T14:40:26.297Z,41.47
2022-09-09T14:45:29.409Z,43.41
2022-09-09T14:50:33.810Z,42.83
2022-09-09T14:55:36.868Z,43.96
2022-09-09T15:00:40.094Z,43.64
2022-09-09T15:05:44.340Z,43.62
2022-09-09T15:10:48.232Z,43.54
2022-09-09T15:15:52.196Z,43.68
2022-09-09T15:20:57.323Z,43.92
2022-09-09T15:26:01.345Z,44.83
2022-09-09T15:31:08.314Z,43.79
2022-09-09T15:36:17.882Z,42.01
2022-09-09T15:41:22.527Z,42.31
2022-09-09T15:46:29.153Z,43.87
2022-09-09T15:51:49.236Z,45.84
2022-09-09T15:56:55.843Z,45.98
2022-09-09T16:02:00.973Z,45.67
2022-09-09T16:07:07.639Z,46.82
2022-09-09T16:12:12.904Z,46.89
2022-09-09T16:17:16.319Z,48.46
2022-09-09T16:22:22.853Z,47.88
2022-09-09T16:27:25.946Z,47.94
2022-09-09T16:32:29.093Z,49.42
2022-09-09T16:37:34.999Z,47.87
2022-09-09T16:42:39.700Z,47.89
2022-09-09T16:47:42.848Z,48.61
2022-09-09T16:52:46.890Z,53.47
2022-09-09T16:57:50.259Z,56.34
2022-09-09T17:02:53.134Z,57.69
2022-09-09T17:07:58.358Z,57.99
2022-09-09T17:13:02.601Z,59.75
2022-09-09T17:18:05.793Z,60.75
2022-09-09T17:23:10.941Z,62.86
2022-09-09T17:28:13.771Z,66.22
2022-09-09T17:33:16.810Z,69.15
2022-09-09T17:38:23.511Z,71.56
2022-09-09T17:43:29.594Z,72.64
2022-09-09T17:48:32.510Z,74.06
2022-09-09T17:53:40.582Z,72.44
2022-09-09T17:58:44.082Z,73.26
2022-09-09T18:03:48.967Z,71.24
2022-09-09T18:08:56.507Z,72.29
2022-09-09T18:14:01.554Z,71.90
2022-09-09T18:19:06.346Z,71.47
2022-09-09T18:24:11.652Z,70.69
2022-09-09T18:29:16.973Z,69.60
2022-09-09T18:34:22.005Z,69.18
2022-09-09T18:39:28.820Z,68.89
2022-09-09T18:44:34.586Z,68.00
2022-09-09T18:49:37.453Z,67.78
2022-09-09T18:54:45.914Z,67.66
2022-09-09T18:59:49.179Z,67.46
2022-09-09T19:04:52.108Z,67.21
2022-09-09T19:09:56.396Z,66.74
2022-09-09T19:14:59.830Z,67.31
2022-09-09T19:20:03.186Z,67.40
2022-09-09T19:25:08.688Z,67.80
2022-09-09T19:30:13.461Z,68.07
2022-09-09T19:35:16.649Z,68.04
2022-09-09T19:40:22.114Z,68.84
2022-09-09T19:45:24.961Z,69.48
2022-09-09T19:50:29.058Z,70.11
2022-09-09T19:55:35.372Z,70.17
2022-09-09T20:00:39.473Z,69.99
2022-09-09T20:05:42.519Z,70.48
2022-09-09T20:10:54.387Z,71.72
2022-09-09T20:16:00.378Z,71.37
2022-09-09T20:21:05.700Z,71.02
2022-09-09T20:26:12.898Z,71.43
2022-09-09T20:31:17.516Z,71.41
2022-09-09T20:36:22.697Z,72.05
2022-09-09T20:41:29.269Z,72.72
2022-09-09T20:46:35.161Z,72.08
2022-09-09T20:51:38.781Z,72.06
2022-09-09T20:56:45.172Z,71.90
2022-09-09T21:01:48.635Z,71.52
2022-09-09T21:06:51.830Z,71.54
2022-09-09T21:11:55.979Z,71.37
2022-09-09T21:16:58.863Z,71.70
2022-09-09T21:22:01.720Z,72.65
2022-09-09T21:27:06.340Z,72.87
2022-09-09T21:32:09.104Z,71.96
2022-09-09T21:37:12.126Z,73.36
2022-09-09T21:42:16.267Z,72.58
2022-09-09T21:47:19.269Z,73.87
2022-09-09T21:52:22.146Z,73.80
2022-09-09T21:57:26.333Z,73.09
2022-09-09T22:02:29.399Z,72.94
2022-09-09T22:07:33.189Z,73.02
2022-09-09T22:12:37.366Z,73.89
2022-09-09T22:17:41.006Z,73.34
2022-09-09T22:22:43.683Z,73.98
2022-09-09T22:27:47.829Z,73.78
2022-09-09T22:32:50.887Z,73.83
2022-09-09T22:37:55.719Z,73.86
2022-09-09T22:42:59.777Z,74.08
2022-09-09T22:48:02.766Z,73.99
2022-09-09T22:53:06.124Z,73.16
2022-09-09T22:58:10.934Z,73.62
2022-09-09T23:03:13.746Z,73.03
2022-09-09T23:08:18.699Z,73.27
2022-09-09T23:13:24.204Z,72.65
2022-09-09T23:18:27.010Z,72.77
2022-09-09T23:23:29.795Z,73.62
2022-09-09T23:28:34.946Z,73.04
2022-09-09T23:33:38.180Z,72.81
2022-09-09T23:38:41.859Z,72.84
2022-09-09T23:43:45.928Z,72.50
2022-09-09T23:48:50.601Z,72.96
2022-09-09T23:53:57.025Z,73.12
2022-09-09T23:59:01.605Z,74.07
